MGPB

Puerto Barrios Airport

Puerto Barrios, Guatemala
MGPB 230500Z 2306/2406 00000KT 9999 FEW016 TX31/2320Z TN21/2312Z TEMPO 2306/2312 CAVOK BECMG 2315/2317 02008KT FEW018 BECMG 2320/2322 SCT020 BECMG 2401/2403 00000KT FEW016
Issued Valid From Valid To
Apr-23 @ 05:00 UTC
(5 hours ago)
Apr-23 @ 06:00 UTC
(4 hours ago)
Apr-24 @ 06:00 UTC
(in 20 hours)
Apr-23 @ 06:00 to Apr-23 @ 15:00
MGPB 230500Z 2306/2406 00000KT 9999 FEW016 TX31/2320Z TN21/2312Z
Visibility Clouds
10,000+ meters
  • Few at 1,600' AGL
Temporary Apr-23 @ 06:00 to Apr-23 @ 12:00
TEMPO 2306/2312 CAVOK
Visibility Clouds Conditions
10,000+ meters
  • No significant clouds
Becoming Apr-23 @ 15:00 to Apr-23 @ 20:00
BECMG 2315/2317 02008KT FEW018
Wind Visibility Clouds
20° at 8 knots 10,000+ meters
  • Few at 1,800' AGL
Becoming Apr-23 @ 20:00 to Apr-24 @ 01:00
BECMG 2320/2322 SCT020
Wind Visibility Clouds
20° at 8 knots 10,000+ meters
  • Scattered at 2,000' AGL
Becoming Apr-24 @ 01:00 to Apr-24 @ 06:00
BECMG 2401/2403 00000KT FEW016
Visibility Clouds
10,000+ meters
  • Few at 1,600' AGL
MGPB 230500Z 2306/2406 00000KT 9999 FEW016 TX31/2320Z TN21/2312Z TEMPO 2306/2312 CAVOK BECMG 2315/2317 02008KT FEW018 BECMG 2320/2322 SCT020 BECMG 2401/2403 00000KT FEW016
Issued Apr-23 @ 05:00 UTC
(5 hours ago)
Valid From Apr-23 @ 06:00 UTC
(4 hours ago)
Valid To Apr-24 @ 06:00 UTC
(in 20 hours)
Apr-23 @ 06:00 - Apr-23 @ 15:00
Clouds
  • Few at 1,600' AGL
Temporary Apr-23 @ 06:00 - Apr-23 @ 12:00
Clouds
  • No significant clouds
Conditions
Becoming Apr-23 @ 15:00 - Apr-23 @ 20:00
Wind Visibility
20° at 8 knots 10,000+ meters
Clouds
  • Few at 1,800' AGL
Becoming Apr-23 @ 20:00 - Apr-24 @ 01:00
Wind Visibility
20° at 8 knots 10,000+ meters
Clouds
  • Scattered at 2,000' AGL
Becoming Apr-24 @ 01:00 - Apr-24 @ 06:00
Clouds
  • Few at 1,600' AGL